createdAt,value
2017-09-23T00:01:30.828Z,11.20
2017-09-23T00:04:00.556Z,11.30
2017-09-23T00:06:29.051Z,11.20
2017-09-23T00:08:57.601Z,11.20
2017-09-23T00:11:26.822Z,11.20
2017-09-23T00:13:56.070Z,11.20
2017-09-23T00:16:24.588Z,11.20
2017-09-23T00:18:53.826Z,11.00
2017-09-23T00:21:22.288Z,11.00
2017-09-23T00:23:50.896Z,10.90
2017-09-23T00:26:19.348Z,10.80
2017-09-23T00:28:47.821Z,10.80
2017-09-23T00:31:16.478Z,10.80
2017-09-23T00:33:44.959Z,10.90
2017-09-23T00:36:13.426Z,10.80
2017-09-23T00:38:42.249Z,10.90
2017-09-23T00:41:11.543Z,10.80
2017-09-23T00:43:40.826Z,10.80
2017-09-23T00:46:09.390Z,10.80
2017-09-23T00:48:38.281Z,10.70
2017-09-23T00:51:06.786Z,10.70
2017-09-23T00:53:36.204Z,10.70
2017-09-23T00:56:05.453Z,10.80
2017-09-23T00:58:33.921Z,10.70
2017-09-23T01:01:02.457Z,10.80
2017-09-23T01:03:31.031Z,10.80
2017-09-23T01:05:59.750Z,10.80
2017-09-23T01:08:28.457Z,10.90
2017-09-23T01:10:56.946Z,10.90
2017-09-23T01:13:25.470Z,10.90
2017-09-23T01:15:54.009Z,10.80
2017-09-23T01:18:22.526Z,10.70
2017-09-23T01:20:51.073Z,10.70
2017-09-23T01:23:19.651Z,10.70
2017-09-23T01:25:48.406Z,10.70
2017-09-23T01:28:17.676Z,10.70
2017-09-23T01:30:46.334Z,10.70
2017-09-23T01:33:14.900Z,10.70
2017-09-23T01:35:43.424Z,10.70
2017-09-23T01:38:11.973Z,10.80
2017-09-23T01:40:40.482Z,10.90
2017-09-23T01:43:08.966Z,10.80
2017-09-23T01:45:37.810Z,10.90
2017-09-23T01:48:06.294Z,10.90
2017-09-23T01:50:35.005Z,11.00
2017-09-23T01:53:03.618Z,10.90
2017-09-23T01:55:32.116Z,11.00
2017-09-23T01:58:01.377Z,10.90
2017-09-23T02:00:29.948Z,10.80
2017-09-23T02:02:58.460Z,10.90
2017-09-23T02:05:26.925Z,10.80
2017-09-23T02:07:55.968Z,10.70
2017-09-23T02:10:24.453Z,10.70
2017-09-23T02:12:53.031Z,10.70
2017-09-23T02:15:21.888Z,10.70
2017-09-23T02:17:50.434Z,10.70
2017-09-23T02:20:18.949Z,10.80
2017-09-23T02:22:47.832Z,10.80
2017-09-23T02:25:16.355Z,10.80
2017-09-23T02:27:44.929Z,10.90
2017-09-23T02:30:14.667Z,10.80
2017-09-23T02:32:43.138Z,10.80
2017-09-23T02:35:11.643Z,10.90
2017-09-23T02:37:40.364Z,10.90
2017-09-23T02:40:10.602Z,10.80
2017-09-23T02:42:40.691Z,10.80
2017-09-23T02:45:09.905Z,10.80
2017-09-23T02:47:40.513Z,10.80
2017-09-23T02:50:09.024Z,10.80
2017-09-23T02:52:37.551Z,10.80
2017-09-23T02:55:06.022Z,10.80
2017-09-23T02:57:34.563Z,10.70
2017-09-23T03:00:03.196Z,10.80
2017-09-23T03:02:31.702Z,10.80
2017-09-23T03:05:00.162Z,10.80
2017-09-23T03:07:28.694Z,10.80
2017-09-23T03:09:57.358Z,10.80
2017-09-23T03:12:25.845Z,10.80
2017-09-23T03:14:54.494Z,10.90
2017-09-23T03:17:23.029Z,10.80
2017-09-23T03:19:51.527Z,10.90
2017-09-23T03:22:20.874Z,11.00
2017-09-23T03:24:49.338Z,11.00
2017-09-23T03:27:18.089Z,10.80
2017-09-23T03:29:47.519Z,10.50
2017-09-23T03:32:16.014Z,10.50
2017-09-23T03:34:45.299Z,10.40
2017-09-23T03:37:13.884Z,10.40
2017-09-23T03:39:42.388Z,10.40
2017-09-23T03:42:10.893Z,10.40
2017-09-23T03:44:39.543Z,10.50
2017-09-23T03:47:08.038Z,10.40
2017-09-23T03:49:36.552Z,10.50
2017-09-23T03:52:05.967Z,10.40
2017-09-23T03:54:35.203Z,10.40
2017-09-23T03:57:03.707Z,10.40
2017-09-23T03:59:33.952Z,10.40
2017-09-23T04:02:02.444Z,10.50
2017-09-23T04:04:30.931Z,10.40
2017-09-23T04:06:59.647Z,10.30
2017-09-23T04:09:28.146Z,10.30
2017-09-23T04:11:56.938Z,10.20
2017-09-23T04:14:25.461Z,10.30
2017-09-23T04:16:54.007Z,10.30
2017-09-23T04:19:22.496Z,10.30
2017-09-23T04:21:51.279Z,10.30
2017-09-23T04:24:19.792Z,10.30
2017-09-23T04:26:48.343Z,10.30
2017-09-23T04:29:18.865Z,10.20
2017-09-23T04:31:48.137Z,10.20
2017-09-23T04:34:16.573Z,10.20
2017-09-23T04:36:45.096Z,10.20
2017-09-23T04:39:14.266Z,10.20
2017-09-23T04:41:42.741Z,10.20
2017-09-23T04:44:11.196Z,10.30
2017-09-23T04:46:39.579Z,10.30
2017-09-23T04:49:08.790Z,10.30
2017-09-23T04:51:37.533Z,10.30
2017-09-23T04:54:05.973Z,10.30
2017-09-23T04:56:34.415Z,10.30
2017-09-23T04:59:03.390Z,10.30
2017-09-23T05:01:31.776Z,10.40
2017-09-23T05:04:00.196Z,10.40
2017-09-23T05:06:28.751Z,10.50
2017-09-23T05:08:57.886Z,10.60
2017-09-23T05:11:26.293Z,10.60
2017-09-23T05:13:55.614Z,10.60
2017-09-23T05:16:24.009Z,10.60
2017-09-23T05:18:52.431Z,10.60
2017-09-23T05:21:21.153Z,10.70
2017-09-23T05:23:49.582Z,10.80
2017-09-23T05:26:17.940Z,10.70
2017-09-23T05:28:46.372Z,10.70
2017-09-23T05:31:15.598Z,10.60
2017-09-23T05:33:44.083Z,10.60
2017-09-23T05:36:12.901Z,10.80
2017-09-23T05:38:41.274Z,10.80
2017-09-23T05:41:09.699Z,10.70
2017-09-23T05:43:39.059Z,10.80
2017-09-23T05:46:07.456Z,10.80
2017-09-23T05:48:36.629Z,10.80
2017-09-23T05:51:05.188Z,10.80
2017-09-23T05:53:33.602Z,10.80
2017-09-23T05:56:02.357Z,10.80
2017-09-23T05:58:30.892Z,10.80
2017-09-23T06:01:00.745Z,10.70
2017-09-23T06:03:29.128Z,10.70
2017-09-23T06:05:57.566Z,10.70
2017-09-23T06:08:25.961Z,10.80
2017-09-23T06:10:55.166Z,10.90
2017-09-23T06:13:23.610Z,10.90
2017-09-23T06:15:52.261Z,11.00
2017-09-23T06:18:20.669Z,10.90
2017-09-23T06:20:49.413Z,10.90
2017-09-23T06:23:17.799Z,11.10
2017-09-23T06:25:46.245Z,11.20
2017-09-23T06:28:15.520Z,11.30
2017-09-23T06:30:43.925Z,11.30
2017-09-23T06:33:12.402Z,11.40
2017-09-23T06:35:41.685Z,11.50
2017-09-23T06:38:10.111Z,11.60
2017-09-23T06:40:38.642Z,11.60
2017-09-23T06:43:07.148Z,11.60
2017-09-23T06:45:36.332Z,11.60
2017-09-23T06:48:04.748Z,11.60
2017-09-23T06:50:33.275Z,11.90
2017-09-23T06:53:01.662Z,12.10
2017-09-23T06:55:30.056Z,12.00
2017-09-23T06:57:59.735Z,12.30
2017-09-23T07:00:28.162Z,12.30
2017-09-23T07:02:57.409Z,12.60
2017-09-23T07:05:26.199Z,12.60
2017-09-23T07:07:54.625Z,12.90
2017-09-23T07:10:23.834Z,12.80
2017-09-23T07:12:52.287Z,12.80
2017-09-23T07:15:21.456Z,13.00
2017-09-23T07:17:50.054Z,12.90
2017-09-23T07:20:18.503Z,12.60
2017-09-23T07:22:46.980Z,12.50
2017-09-23T07:25:15.367Z,12.60
2017-09-23T07:27:43.947Z,12.60
2017-09-23T07:30:12.345Z,12.70
2017-09-23T07:32:40.708Z,12.80
2017-09-23T07:35:09.166Z,12.80
2017-09-23T07:37:37.539Z,12.80
2017-09-23T07:40:05.941Z,12.80
2017-09-23T07:42:35.129Z,12.80
2017-09-23T07:45:03.582Z,12.70
2017-09-23T07:47:32.763Z,12.90
2017-09-23T07:50:01.262Z,12.90
2017-09-23T07:52:29.759Z,12.90
2017-09-23T07:54:58.162Z,12.80
2017-09-23T07:57:26.629Z,12.80
2017-09-23T07:59:55.132Z,12.80
2017-09-23T08:02:23.509Z,12.90
2017-09-23T08:04:52.113Z,13.00
2017-09-23T08:07:20.618Z,13.00
2017-09-23T08:09:49.790Z,13.10
2017-09-23T08:12:18.380Z,13.10
2017-09-23T08:14:46.867Z,13.30
2017-09-23T08:17:15.326Z,13.40
2017-09-23T08:19:44.050Z,13.50
2017-09-23T08:22:12.446Z,13.60
2017-09-23T08:24:40.955Z,13.60
2017-09-23T08:27:09.417Z,13.80
2017-09-23T08:29:37.777Z,13.90
2017-09-23T08:32:07.544Z,14.50
2017-09-23T08:34:36.495Z,14.50
2017-09-23T08:37:04.978Z,14.80
2017-09-23T08:39:33.375Z,15.30
2017-09-23T08:42:01.887Z,15.70
2017-09-23T08:44:30.272Z,15.80
2017-09-23T08:46:58.721Z,15.30
2017-09-23T08:49:27.156Z,14.90
2017-09-23T08:51:56.325Z,15.40
2017-09-23T08:54:24.733Z,15.40
2017-09-23T08:56:54.041Z,15.60
2017-09-23T08:59:22.464Z,15.80
2017-09-23T09:01:53.860Z,16.20
2017-09-23T09:04:23.058Z,17.00
2017-09-23T09:06:52.302Z,16.80
2017-09-23T09:09:21.270Z,16.80
2017-09-23T09:11:49.843Z,17.60
2017-09-23T09:14:18.305Z,18.40
2017-09-23T09:16:47.547Z,17.80
2017-09-23T09:19:16.301Z,17.80
2017-09-23T09:21:45.603Z,16.50
2017-09-23T09:24:13.977Z,16.50
2017-09-23T09:26:43.523Z,16.00
2017-09-23T09:29:11.939Z,16.00
2017-09-23T09:31:41.212Z,16.40
2017-09-23T09:34:09.877Z,16.40
2017-09-23T09:36:38.268Z,16.50
2017-09-23T09:39:06.778Z,16.90
2017-09-23T09:41:35.372Z,17.40
2017-09-23T09:44:03.852Z,17.40
2017-09-23T09:46:32.244Z,17.00
2017-09-23T09:49:01.565Z,16.90
2017-09-23T09:51:29.957Z,16.90
2017-09-23T09:53:58.837Z,17.50
2017-09-23T09:56:28.224Z,18.20
2017-09-23T09:58:57.434Z,18.40
2017-09-23T10:01:26.708Z,18.40
2017-09-23T10:03:56.608Z,18.90
2017-09-23T10:06:25.025Z,18.60
2017-09-23T10:08:53.468Z,19.00
2017-09-23T10:11:23.016Z,20.50
2017-09-23T10:13:51.443Z,21.00
2017-09-23T10:16:20.707Z,20.70
2017-09-23T10:18:50.153Z,20.30
2017-09-23T10:21:18.604Z,20.40
2017-09-23T10:23:47.476Z,19.70
2017-09-23T10:26:15.913Z,19.30
2017-09-23T10:28:45.112Z,19.30
2017-09-23T10:31:13.496Z,19.30
2017-09-23T10:33:42.709Z,19.00
2017-09-23T10:36:11.134Z,18.90
2017-09-23T10:38:39.618Z,19.20
2017-09-23T10:41:08.509Z,19.50
2017-09-23T10:43:38.465Z,19.90
2017-09-23T10:46:07.136Z,20.00
2017-09-23T10:48:35.756Z,20.20
2017-09-23T10:51:04.899Z,20.30
2017-09-23T10:53:33.399Z,20.30
2017-09-23T10:56:02.610Z,20.20
2017-09-23T10:58:31.115Z,20.20
2017-09-23T11:00:59.557Z,21.00
2017-09-23T11:03:28.088Z,20.80
2017-09-23T11:05:56.549Z,20.50
2017-09-23T11:08:24.998Z,20.50
2017-09-23T11:10:54.335Z,21.80
2017-09-23T11:13:22.867Z,21.70
2017-09-23T11:15:51.253Z,21.40
2017-09-23T11:18:19.774Z,21.00
2017-09-23T11:20:48.997Z,22.00
2017-09-23T11:23:17.411Z,22.00
2017-09-23T11:25:46.021Z,22.20
2017-09-23T11:28:15.219Z,22.30
2017-09-23T11:30:44.429Z,21.40
2017-09-23T11:33:13.716Z,20.40
2017-09-23T11:35:42.154Z,20.40
2017-09-23T11:38:10.540Z,20.00
2017-09-23T11:40:39.367Z,19.80
2017-09-23T11:43:08.967Z,20.80
2017-09-23T11:45:38.168Z,20.30
2017-09-23T11:48:07.472Z,19.70
2017-09-23T11:50:35.876Z,19.70
2017-09-23T11:53:04.351Z,19.20
2017-09-23T11:55:32.810Z,18.80
2017-09-23T11:58:01.180Z,18.60
2017-09-23T12:00:30.337Z,18.50
2017-09-23T12:02:59.284Z,18.50
2017-09-23T12:05:27.677Z,18.50
2017-09-23T12:07:56.769Z,18.90
2017-09-23T12:10:25.551Z,18.90
2017-09-23T12:12:54.748Z,18.70
2017-09-23T12:15:23.996Z,18.70
2017-09-23T12:17:53.234Z,18.50
2017-09-23T12:20:23.559Z,18.60
2017-09-23T12:22:52.747Z,18.50
2017-09-23T12:25:22.123Z,18.20
2017-09-23T12:27:50.861Z,18.20
2017-09-23T12:30:19.285Z,18.60
2017-09-23T12:32:47.739Z,18.50
2017-09-23T12:35:16.245Z,19.00
2017-09-23T12:37:44.727Z,19.20
2017-09-23T12:40:13.200Z,18.80
2017-09-23T12:42:41.737Z,18.90
2017-09-23T12:45:11.507Z,19.20
2017-09-23T12:47:40.273Z,19.50
2017-09-23T12:50:08.773Z,20.00
2017-09-23T12:52:37.176Z,19.80
2017-09-23T12:55:05.699Z,19.60
2017-09-23T12:57:34.259Z,19.50
2017-09-23T13:00:04.343Z,19.00
2017-09-23T13:02:34.108Z,19.50
2017-09-23T13:05:02.587Z,19.50
2017-09-23T13:07:31.068Z,20.40
2017-09-23T13:10:00.224Z,20.40
2017-09-23T13:12:28.619Z,21.40
2017-09-23T13:14:57.870Z,22.90
2017-09-23T13:17:27.582Z,22.80
2017-09-23T13:19:56.013Z,22.70
2017-09-23T13:22:25.220Z,21.40
2017-09-23T13:24:53.916Z,21.40
2017-09-23T13:27:24.268Z,20.70
2017-09-23T13:29:53.277Z,20.70
2017-09-23T13:32:21.917Z,22.00
2017-09-23T13:34:50.314Z,21.80
2017-09-23T13:37:19.499Z,20.60
2017-09-23T13:39:48.174Z,20.60
2017-09-23T13:42:16.653Z,20.50
2017-09-23T13:44:45.106Z,20.90
2017-09-23T13:47:14.607Z,20.40
2017-09-23T13:49:43.149Z,20.40
2017-09-23T13:52:11.580Z,19.80
2017-09-23T13:54:40.869Z,19.70
2017-09-23T13:57:09.306Z,19.70
2017-09-23T13:59:37.786Z,20.20
2017-09-23T14:02:07.241Z,19.90
2017-09-23T14:04:36.430Z,20.00
2017-09-23T14:07:05.666Z,19.40
2017-09-23T14:09:34.096Z,19.40
2017-09-23T14:12:02.641Z,19.50
2017-09-23T14:14:31.049Z,19.40
2017-09-23T14:16:59.563Z,19.50
2017-09-23T14:19:28.726Z,19.40
2017-09-23T14:21:57.139Z,19.40
2017-09-23T14:24:26.353Z,19.30
2017-09-23T14:26:55.572Z,19.10
2017-09-23T14:29:24.098Z,19.10
2017-09-23T14:31:52.642Z,19.30
2017-09-23T14:34:21.139Z,19.40
2017-09-23T14:36:49.560Z,19.30
2017-09-23T14:39:18.910Z,19.50
2017-09-23T14:41:47.330Z,19.50
2017-09-23T14:44:15.794Z,19.50
2017-09-23T14:46:45.772Z,19.40
2017-09-23T14:49:15.583Z,19.50
2017-09-23T14:51:45.288Z,19.90
2017-09-23T14:54:13.858Z,19.80
2017-09-23T14:56:42.312Z,19.50
2017-09-23T14:59:11.514Z,19.00
2017-09-23T15:01:40.750Z,19.20
2017-09-23T15:04:09.159Z,19.10
2017-09-23T15:06:37.534Z,19.10
2017-09-23T15:09:06.355Z,18.80
2017-09-23T15:11:34.737Z,18.70
2017-09-23T15:14:03.523Z,18.70
2017-09-23T15:16:31.949Z,18.50
2017-09-23T15:19:00.525Z,18.30
2017-09-23T15:21:28.951Z,18.40
2017-09-23T15:23:57.746Z,18.60
2017-09-23T15:26:26.173Z,18.70
2017-09-23T15:28:54.598Z,18.70
2017-09-23T15:31:23.080Z,18.70
2017-09-23T15:33:51.872Z,18.60
2017-09-23T15:36:20.373Z,18.40
2017-09-23T15:38:48.889Z,18.30
2017-09-23T15:41:17.383Z,18.40
2017-09-23T15:43:45.815Z,18.20
2017-09-23T15:46:15.171Z,18.20
2017-09-23T15:48:43.593Z,18.20
2017-09-23T15:51:13.043Z,18.10
2017-09-23T15:53:41.812Z,18.10
2017-09-23T15:56:10.309Z,18.00
2017-09-23T15:58:38.691Z,18.00
2017-09-23T16:01:07.274Z,17.90
2017-09-23T16:03:36.403Z,18.00
2017-09-23T16:06:04.787Z,17.90
2017-09-23T16:08:33.354Z,17.90
2017-09-23T16:11:01.745Z,17.80
2017-09-23T16:13:30.137Z,17.80
2017-09-23T16:15:58.882Z,17.70
2017-09-23T16:18:27.331Z,17.70
2017-09-23T16:20:55.739Z,17.60
2017-09-23T16:23:24.212Z,17.50
2017-09-23T16:25:52.602Z,17.40
2017-09-23T16:28:21.148Z,17.40
2017-09-23T16:30:52.190Z,17.50
2017-09-23T16:33:20.598Z,17.50
2017-09-23T16:35:51.065Z,17.40
2017-09-23T16:38:20.530Z,17.30
2017-09-23T16:40:51.325Z,17.30
2017-09-23T16:43:21.850Z,17.20
2017-09-23T16:45:51.267Z,17.20
2017-09-23T16:48:19.785Z,17.10
2017-09-23T16:50:50.326Z,17.10
2017-09-23T16:53:20.472Z,17.00
2017-09-23T16:55:52.765Z,17.00
2017-09-23T16:58:21.550Z,17.00
2017-09-23T17:00:51.643Z,16.90
2017-09-23T17:03:20.434Z,16.80
2017-09-23T17:05:50.538Z,16.80
2017-09-23T17:08:19.678Z,16.80
2017-09-23T17:10:51.966Z,16.70
2017-09-23T17:13:20.382Z,16.70
2017-09-23T17:15:51.513Z,16.60
2017-09-23T17:18:20.376Z,16.50
2017-09-23T17:20:50.340Z,16.50
2017-09-23T17:23:18.812Z,16.50
2017-09-23T17:28:22.897Z,16.40
2017-09-23T17:30:52.142Z,16.30
2017-09-23T17:33:20.672Z,16.30
2017-09-23T17:35:49.950Z,16.20
2017-09-23T17:38:19.578Z,16.10
2017-09-23T17:40:52.013Z,16.10
2017-09-23T17:43:20.445Z,16.10
2017-09-23T17:45:56.203Z,16.00
2017-09-23T17:48:25.082Z,16.00
2017-09-23T17:50:53.504Z,16.00
2017-09-23T17:53:22.053Z,15.90
2017-09-23T17:55:51.422Z,16.00
2017-09-23T17:58:22.213Z,15.90
2017-09-23T18:00:51.604Z,15.80
2017-09-23T18:03:20.176Z,15.80
2017-09-23T18:05:49.827Z,15.70
2017-09-23T18:08:19.027Z,15.70
2017-09-23T18:10:54.365Z,15.70
2017-09-23T18:13:22.799Z,15.60
2017-09-23T18:15:52.043Z,15.70
2017-09-23T18:18:20.842Z,15.60
2017-09-23T18:20:50.799Z,15.50
2017-09-23T18:23:19.191Z,15.50
2017-09-23T18:25:54.264Z,15.40
2017-09-23T18:28:22.673Z,15.40
2017-09-23T18:30:57.692Z,15.30
2017-09-23T18:33:26.152Z,15.30
2017-09-23T18:35:54.568Z,15.30
2017-09-23T18:38:23.421Z,15.20
2017-09-23T18:40:52.657Z,15.20
2017-09-23T18:43:21.070Z,15.20
2017-09-23T18:45:52.358Z,15.20
2017-09-23T18:48:20.771Z,15.10
2017-09-23T18:50:52.762Z,15.00
2017-09-23T18:53:21.267Z,15.00
2017-09-23T18:55:51.560Z,15.00
2017-09-23T18:58:20.768Z,14.90
2017-09-23T19:00:52.150Z,14.90
2017-09-23T19:03:20.569Z,14.90
2017-09-23T19:05:50.438Z,14.90
2017-09-23T19:08:19.176Z,14.80
2017-09-23T19:10:54.337Z,14.80
2017-09-23T19:13:23.439Z,14.80
2017-09-23T19:15:51.898Z,14.70
2017-09-23T19:18:20.337Z,14.70
2017-09-23T19:20:50.254Z,14.70
2017-09-23T19:23:19.429Z,14.60
2017-09-23T19:25:50.285Z,14.60
2017-09-23T19:28:19.554Z,14.60
2017-09-23T19:30:53.877Z,14.60
2017-09-23T19:33:22.441Z,14.60
2017-09-23T19:35:51.072Z,14.60
2017-09-23T19:38:20.290Z,14.60
2017-09-23T19:40:51.515Z,14.50
2017-09-23T19:43:21.238Z,14.50
2017-09-23T19:45:50.438Z,14.50
2017-09-23T19:48:19.215Z,14.50
2017-09-23T19:50:48.796Z,14.50
2017-09-23T19:53:17.191Z,14.50
2017-09-23T19:55:45.789Z,14.50
2017-09-23T19:58:14.187Z,14.50
2017-09-23T20:00:42.934Z,14.40
2017-09-23T20:03:12.234Z,14.40
2017-09-23T20:05:41.345Z,14.40
2017-09-23T20:08:11.218Z,14.40
2017-09-23T20:10:39.873Z,14.40
2017-09-23T20:13:08.366Z,14.40
2017-09-23T20:15:36.914Z,14.30
2017-09-23T20:18:06.181Z,14.30
2017-09-23T20:20:35.416Z,14.30
2017-09-23T20:23:04.572Z,14.30
2017-09-23T20:25:32.989Z,14.30
2017-09-23T20:28:01.856Z,14.30
2017-09-23T20:30:30.302Z,14.20
2017-09-23T20:32:58.845Z,14.20
2017-09-23T20:35:27.241Z,14.20
2017-09-23T20:37:55.634Z,14.20
2017-09-23T20:40:24.095Z,14.20
2017-09-23T20:42:52.585Z,14.10
2017-09-23T20:45:21.033Z,14.10
2017-09-23T20:47:50.352Z,14.00
2017-09-23T20:50:18.752Z,14.00
2017-09-23T20:52:47.192Z,13.90
2017-09-23T20:55:15.750Z,13.90
2017-09-23T20:57:44.118Z,13.80
2017-09-23T21:00:12.541Z,13.80
2017-09-23T21:02:42.211Z,13.70
2017-09-23T21:05:11.600Z,13.70
2017-09-23T21:07:40.001Z,13.70
2017-09-23T21:10:08.571Z,13.70
2017-09-23T21:12:36.959Z,13.70
2017-09-23T21:15:05.344Z,13.70
2017-09-23T21:17:33.784Z,13.80
2017-09-23T21:20:02.257Z,13.70
2017-09-23T21:22:30.676Z,13.60
2017-09-23T21:24:59.895Z,13.60
2017-09-23T21:27:29.233Z,13.60
2017-09-23T21:29:57.713Z,13.60
2017-09-23T21:32:26.153Z,13.60
2017-09-23T21:34:54.566Z,13.60
2017-09-23T21:37:22.969Z,13.60
2017-09-23T21:39:51.378Z,13.50
2017-09-23T21:42:19.792Z,13.50
2017-09-23T21:44:49.371Z,13.50
2017-09-23T21:47:17.897Z,13.50
2017-09-23T21:49:46.765Z,13.50
2017-09-23T21:52:15.930Z,13.50
2017-09-23T21:54:44.502Z,13.50
2017-09-23T21:57:12.915Z,13.50
2017-09-23T21:59:42.127Z,13.50
2017-09-23T22:02:10.742Z,13.50
2017-09-23T22:04:39.119Z,13.60
2017-09-23T22:07:07.519Z,13.60
2017-09-23T22:09:36.016Z,13.50
2017-09-23T22:12:04.418Z,13.50
2017-09-23T22:14:33.548Z,13.40
2017-09-23T22:17:02.034Z,13.40
2017-09-23T22:19:30.709Z,13.30
2017-09-23T22:21:59.088Z,13.30
2017-09-23T22:24:27.542Z,13.30
2017-09-23T22:26:56.703Z,13.20
2017-09-23T22:29:25.065Z,13.20
2017-09-23T22:31:53.650Z,13.20
2017-09-23T22:34:22.050Z,13.10
2017-09-23T22:36:50.478Z,13.10
2017-09-23T22:39:19.674Z,13.00
2017-09-23T22:41:48.100Z,13.00
2017-09-23T22:44:16.899Z,13.00
2017-09-23T22:46:45.467Z,12.90
2017-09-23T22:49:13.862Z,12.90
2017-09-23T22:51:42.272Z,12.80
2017-09-23T22:54:11.847Z,12.70
2017-09-23T22:56:40.244Z,12.70
2017-09-23T22:59:08.683Z,12.70
2017-09-23T23:01:37.255Z,12.70
2017-09-23T23:04:05.667Z,12.60
2017-09-23T23:06:34.066Z,12.60
2017-09-23T23:09:02.902Z,12.60
2017-09-23T23:11:31.323Z,12.60
2017-09-23T23:13:59.689Z,12.60
2017-09-23T23:16:28.205Z,12.60
2017-09-23T23:18:57.401Z,12.50
2017-09-23T23:21:26.576Z,12.50
2017-09-23T23:23:55.804Z,12.50
2017-09-23T23:26:25.457Z,12.50
2017-09-23T23:28:53.839Z,12.40
2017-09-23T23:31:22.393Z,12.40
2017-09-23T23:33:50.905Z,12.30
2017-09-23T23:36:19.274Z,12.30
2017-09-23T23:38:47.704Z,12.30
2017-09-23T23:41:16.881Z,12.30
2017-09-23T23:43:46.061Z,12.20
2017-09-23T23:46:14.702Z,12.20
2017-09-23T23:48:43.525Z,12.20
2017-09-23T23:51:11.966Z,12.20
2017-09-23T23:53:40.657Z,12.20
2017-09-23T23:56:09.112Z,12.20
2017-09-23T23:58:38.601Z,12.30
